createdAt,value
2022-10-05T00:01:35.450Z,95901.63
2022-10-05T00:04:16.470Z,95894.38
2022-10-05T00:06:45.913Z,95902.34
2022-10-05T00:09:17.079Z,95897.09
2022-10-05T00:11:44.990Z,95900.19
2022-10-05T00:14:23.814Z,95900.88
2022-10-05T00:16:51.036Z,95903.09
2022-10-05T00:19:33.212Z,95904.56
2022-10-05T00:22:09.811Z,95902.22
2022-10-05T00:24:36.600Z,95899.34
2022-10-05T00:27:21.894Z,95886.06
2022-10-05T00:29:50.148Z,95888.81
2022-10-05T00:32:16.728Z,95888.06
2022-10-05T00:34:45.176Z,95891.13
2022-10-05T00:37:13.801Z,95880.81
2022-10-05T00:39:40.821Z,95890.56
2022-10-05T00:42:31.587Z,95884.72
2022-10-05T00:45:15.933Z,95886.13
2022-10-05T00:47:57.518Z,95892.16
2022-10-05T00:50:40.682Z,95894.53
2022-10-05T00:53:33.239Z,95884.88
2022-10-05T00:56:05.972Z,95877.03
2022-10-05T00:58:38.746Z,95884.91
2022-10-05T01:01:12.806Z,95867.97
2022-10-05T01:07:43.372Z,95873.50
2022-10-05T01:10:21.762Z,95869.66
2022-10-05T01:13:10.118Z,95880.47
2022-10-05T01:15:45.117Z,95877.75
2022-10-05T01:18:39.581Z,95877.34
2022-10-05T01:21:11.679Z,95872.75
2022-10-05T01:23:56.662Z,95870.72
2022-10-05T01:26:48.326Z,95870.25
2022-10-05T01:29:34.025Z,95865.41
2022-10-05T01:32:25.963Z,95875.91
2022-10-05T01:35:14.647Z,95875.91
2022-10-05T01:37:44.357Z,95881.81
2022-10-05T01:40:34.492Z,95881.03
2022-10-05T01:43:12.419Z,95878.72
2022-10-05T01:45:57.729Z,95873.34
2022-10-05T01:48:27.227Z,95869.50
2022-10-05T01:51:22.357Z,95874.16
2022-10-05T01:54:06.918Z,95876.47
2022-10-05T01:57:00.679Z,95875.97
2022-10-05T01:59:29.878Z,95877.13
2022-10-05T02:02:08.004Z,95867.00
2022-10-05T02:05:03.458Z,95865.13
2022-10-05T02:07:56.226Z,95867.66
2022-10-05T02:10:37.436Z,95856.63
2022-10-05T02:13:14.474Z,95862.09
2022-10-05T02:15:46.622Z,95861.22
2022-10-05T02:18:23.831Z,95860.41
2022-10-05T02:20:52.966Z,95855.84
2022-10-05T02:23:25.521Z,95841.78
2022-10-05T02:25:55.442Z,95857.59
2022-10-05T02:28:36.460Z,95856.91
2022-10-05T02:31:12.725Z,95858.47
2022-10-05T02:33:39.452Z,95863.72
2022-10-05T02:36:33.377Z,95859.06
2022-10-05T02:39:20.482Z,95861.75
2022-10-05T02:42:31.996Z,95857.69
2022-10-05T02:45:19.303Z,95859.06
2022-10-05T02:48:02.678Z,95862.16
2022-10-05T02:50:51.273Z,95868.56
2022-10-05T02:53:24.911Z,95865.84
2022-10-05T02:56:12.758Z,95866.94
2022-10-05T02:58:53.476Z,95865.06
2022-10-05T03:01:37.901Z,95853.66
2022-10-05T03:04:26.000Z,95860.00
2022-10-05T03:07:27.844Z,95856.44
2022-10-05T03:10:02.162Z,95859.78
2022-10-05T03:12:34.859Z,95854.16
2022-10-05T03:15:10.612Z,95851.13
2022-10-05T03:17:57.554Z,95854.78
2022-10-05T03:20:43.336Z,95854.78
2022-10-05T03:23:35.990Z,95847.75
2022-10-05T03:26:12.384Z,95845.66
2022-10-05T03:29:00.472Z,95846.38
2022-10-05T03:31:53.081Z,95849.66
2022-10-05T03:35:00.326Z,95843.88
2022-10-05T03:37:44.975Z,95850.34
2022-10-05T03:40:35.062Z,95847.44
2022-10-05T03:43:48.438Z,95850.81
2022-10-05T03:46:39.138Z,95849.94
2022-10-05T03:49:32.004Z,95852.97
2022-10-05T03:52:09.960Z,95851.38
2022-10-05T03:54:42.290Z,95853.66
2022-10-05T03:57:15.886Z,95846.03
2022-10-05T03:59:50.601Z,95850.38
2022-10-05T04:02:25.253Z,95857.00
2022-10-05T04:05:09.167Z,95850.28
2022-10-05T04:07:52.325Z,95853.28
2022-10-05T04:10:30.826Z,95855.84
2022-10-05T04:13:13.249Z,95857.16
2022-10-05T04:15:50.461Z,95842.41
2022-10-05T04:18:34.388Z,95853.59
2022-10-05T04:21:32.482Z,95858.72
2022-10-05T04:24:10.378Z,95866.72
2022-10-05T04:26:52.653Z,95843.59
2022-10-05T04:29:41.219Z,95862.16
2022-10-05T04:32:37.720Z,95864.72
2022-10-05T04:35:10.302Z,95871.09
2022-10-05T04:38:14.175Z,95873.84
2022-10-05T04:41:29.011Z,95868.91
2022-10-05T04:44:43.947Z,95865.78
2022-10-05T04:47:28.722Z,95875.94
2022-10-05T04:49:58.163Z,95871.84
2022-10-05T04:52:31.904Z,95880.75
2022-10-05T04:55:16.424Z,95876.19
2022-10-05T04:58:10.909Z,95879.03
2022-10-05T05:00:55.851Z,95883.78
2022-10-05T05:03:39.270Z,95878.13
2022-10-05T05:06:18.486Z,95873.16
2022-10-05T05:09:19.044Z,95873.16
2022-10-05T05:12:03.797Z,95874.94
2022-10-05T05:14:49.065Z,95878.66
2022-10-05T05:17:39.961Z,95879.19
2022-10-05T05:20:09.777Z,95882.09
2022-10-05T05:23:02.526Z,95891.06
2022-10-05T05:26:01.712Z,95887.94
2022-10-05T05:28:40.008Z,95883.28
2022-10-05T05:31:41.810Z,95886.81
2022-10-05T05:34:23.864Z,95888.03
2022-10-05T05:37:18.036Z,95887.66
2022-10-05T05:40:03.206Z,95901.72
2022-10-05T05:42:58.900Z,95891.91
2022-10-05T05:45:42.122Z,95893.38
2022-10-05T05:48:38.853Z,95886.94
2022-10-05T05:51:16.329Z,95888.97
2022-10-05T05:53:46.994Z,95898.59
2022-10-05T05:56:32.541Z,95898.34
2022-10-05T05:59:12.808Z,95903.09
2022-10-05T06:01:45.134Z,95902.06
2022-10-05T06:04:35.871Z,95912.75
2022-10-05T06:07:05.071Z,95908.78
2022-10-05T06:09:49.854Z,95907.41
2022-10-05T06:12:37.598Z,95901.34
2022-10-05T06:15:24.966Z,95909.34
2022-10-05T06:17:56.441Z,95918.06
2022-10-05T06:20:51.994Z,95913.84
2022-10-05T06:23:25.277Z,95911.34
2022-10-05T06:26:27.378Z,95900.91
2022-10-05T06:29:02.501Z,95913.09
2022-10-05T06:32:04.282Z,95904.69
2022-10-05T06:34:44.412Z,95912.84
2022-10-05T06:37:44.519Z,95913.13
2022-10-05T06:40:49.416Z,95913.50
2022-10-05T06:43:30.804Z,95893.47
2022-10-05T06:46:07.346Z,95909.38
2022-10-05T06:49:03.193Z,95907.69
2022-10-05T06:51:51.431Z,95907.41
2022-10-05T06:54:50.937Z,95919.97
2022-10-05T06:57:55.004Z,95909.75
2022-10-05T07:00:27.308Z,95913.75
2022-10-05T07:03:17.618Z,95917.97
2022-10-05T07:06:12.146Z,95911.00
2022-10-05T07:08:47.837Z,95920.56
2022-10-05T07:11:40.048Z,95921.06
2022-10-05T07:14:21.549Z,95922.66
2022-10-05T07:16:51.295Z,95903.47
2022-10-05T07:19:46.140Z,95911.91
2022-10-05T07:22:37.939Z,95908.97
2022-10-05T07:25:18.030Z,95909.75
2022-10-05T07:28:12.897Z,95914.03
2022-10-05T07:31:16.578Z,95913.78
2022-10-05T07:33:53.252Z,95907.38
2022-10-05T07:36:58.557Z,95916.91
2022-10-05T07:40:06.546Z,95918.06
2022-10-05T07:42:51.499Z,95917.66
2022-10-05T07:45:30.707Z,95921.91
2022-10-05T07:48:12.258Z,95919.28
2022-10-05T07:50:52.540Z,95930.25
2022-10-05T07:53:26.175Z,95922.00
2022-10-05T07:55:55.959Z,95925.44
2022-10-05T07:58:29.492Z,95927.72
2022-10-05T08:01:02.269Z,95926.22
2022-10-05T08:04:00.333Z,95921.72
2022-10-05T08:06:45.625Z,95924.38
2022-10-05T08:09:55.634Z,95926.28
2022-10-05T08:12:27.895Z,95922.50
2022-10-05T08:15:20.691Z,95924.41
2022-10-05T08:17:54.273Z,95895.28
2022-10-05T08:20:46.527Z,95926.72
2022-10-05T08:23:21.149Z,95922.19
2022-10-05T08:25:55.477Z,95914.25
2022-10-05T08:28:35.654Z,95922.56
2022-10-05T08:31:09.223Z,95923.31
2022-10-05T08:34:13.533Z,95919.16
2022-10-05T08:36:40.020Z,95926.38
2022-10-05T08:39:16.168Z,95921.84
2022-10-05T08:42:01.500Z,95917.28
2022-10-05T08:44:47.796Z,95922.59
2022-10-05T08:47:40.579Z,95914.66
2022-10-05T08:50:45.592Z,95921.06
2022-10-05T08:53:20.072Z,95920.69
2022-10-05T08:55:58.548Z,95920.66
2022-10-05T08:58:53.745Z,95919.13
2022-10-05T09:01:56.114Z,95916.47
2022-10-05T09:04:34.298Z,95925.53
2022-10-05T09:07:08.630Z,95926.25
2022-10-05T09:09:43.390Z,95931.16
2022-10-05T09:12:48.979Z,95922.81
2022-10-05T09:15:26.265Z,95920.53
2022-10-05T09:18:12.314Z,95920.09
2022-10-05T09:20:55.156Z,95920.88
2022-10-05T09:23:40.331Z,95920.50
2022-10-05T09:26:28.665Z,95919.38
2022-10-05T09:28:57.851Z,95922.38
2022-10-05T09:31:33.489Z,95920.88
2022-10-05T09:34:26.183Z,95919.34
2022-10-05T09:37:19.847Z,95921.97
2022-10-05T09:40:17.050Z,95914.66
2022-10-05T09:43:18.490Z,95915.41
2022-10-05T09:46:22.575Z,95921.44
2022-10-05T09:49:13.670Z,95916.06
2022-10-05T09:51:46.913Z,95916.41
2022-10-05T09:54:28.885Z,95919.88
2022-10-05T09:57:23.070Z,95923.69
2022-10-05T10:00:15.747Z,95922.13
2022-10-05T10:03:04.981Z,95919.00
2022-10-05T10:05:34.339Z,95918.97
2022-10-05T10:08:12.064Z,95918.13
2022-10-05T10:11:05.042Z,95920.09
2022-10-05T10:13:53.554Z,95914.31
2022-10-05T10:16:32.590Z,95915.06
2022-10-05T10:19:36.680Z,95925.63
2022-10-05T10:22:16.298Z,95911.88
2022-10-05T10:25:01.070Z,95917.16
2022-10-05T10:28:14.710Z,95908.78
2022-10-05T10:30:56.300Z,95910.25
2022-10-05T10:33:51.198Z,95901.94
2022-10-05T10:36:34.009Z,95913.59
2022-10-05T10:39:34.700Z,95906.28
2022-10-05T10:42:16.690Z,95907.78
2022-10-05T10:45:08.813Z,95915.31
2022-10-05T10:48:01.147Z,95902.34
2022-10-05T10:51:12.989Z,95901.59
2022-10-05T10:54:03.886Z,95900.78
2022-10-05T10:56:42.319Z,95899.56
2022-10-05T10:59:53.788Z,95900.56
2022-10-05T11:02:50.012Z,95896.75
2022-10-05T11:06:10.014Z,95899.34
2022-10-05T11:08:58.072Z,95894.00
2022-10-05T11:11:51.309Z,95893.47
2022-10-05T11:14:39.969Z,95888.09
2022-10-05T11:17:31.713Z,95885.78
2022-10-05T11:20:16.450Z,95889.06
2022-10-05T11:22:52.019Z,95886.31
2022-10-05T11:25:49.049Z,95877.09
2022-10-05T11:28:27.442Z,95878.16
2022-10-05T11:31:21.725Z,95880.81
2022-10-05T11:34:24.055Z,95873.06
2022-10-05T11:36:59.632Z,95870.19
2022-10-05T11:39:30.783Z,95868.25
2022-10-05T11:42:00.430Z,95873.81
2022-10-05T11:48:41.838Z,95854.22
2022-10-05T11:51:30.710Z,95862.38
2022-10-05T11:54:17.536Z,95851.59
2022-10-05T11:57:09.403Z,95857.06
2022-10-05T11:59:49.184Z,95837.56
2022-10-05T12:02:34.458Z,95839.34
2022-10-05T12:05:40.131Z,95840.75
2022-10-05T12:08:23.414Z,95836.97
2022-10-05T12:11:07.969Z,95833.47
2022-10-05T12:13:56.222Z,95829.88
2022-10-05T12:16:36.460Z,95822.22
2022-10-05T12:19:36.511Z,95831.94
2022-10-05T12:22:18.130Z,95823.66
2022-10-05T12:25:12.416Z,95819.03
2022-10-05T12:27:42.773Z,95821.25
2022-10-05T12:30:14.903Z,95815.91
2022-10-05T12:32:47.705Z,95817.28
2022-10-05T12:35:46.760Z,95824.09
2022-10-05T12:38:16.122Z,95824.69
2022-10-05T12:40:56.877Z,95810.75
2022-10-05T12:43:37.201Z,95801.50
2022-10-05T12:46:24.010Z,95804.28
2022-10-05T12:49:21.201Z,95809.06
2022-10-05T12:51:59.999Z,95813.91
2022-10-05T12:54:42.364Z,95803.72
2022-10-05T12:57:08.957Z,95807.56
2022-10-05T12:59:59.607Z,95801.78
2022-10-05T13:02:46.714Z,95803.16
2022-10-05T13:05:25.338Z,95800.38
2022-10-05T13:07:51.972Z,95796.63
2022-10-05T13:11:01.882Z,95789.53
2022-10-05T13:13:56.390Z,95802.56
2022-10-05T13:16:25.938Z,95791.13
2022-10-05T13:19:19.538Z,95798.41
2022-10-05T13:21:55.630Z,95790.13
2022-10-05T13:24:31.368Z,95789.69
2022-10-05T13:27:14.847Z,95787.25
2022-10-05T13:30:02.828Z,95783.50
2022-10-05T13:32:36.660Z,95783.31
2022-10-05T13:35:35.511Z,95781.72
2022-10-05T13:38:38.509Z,95786.13
2022-10-05T13:41:24.694Z,95784.13
2022-10-05T13:44:12.331Z,95784.25
2022-10-05T13:47:17.803Z,95778.19
2022-10-05T13:49:57.162Z,95775.06
2022-10-05T13:52:46.969Z,95782.69
2022-10-05T13:55:33.273Z,95772.53
2022-10-05T13:58:13.226Z,95772.34
2022-10-05T14:01:08.823Z,95776.09
2022-10-05T14:03:38.086Z,95778.25
2022-10-05T14:06:14.116Z,95777.31
2022-10-05T14:09:03.196Z,95771.88
2022-10-05T14:11:35.457Z,95774.91
2022-10-05T14:14:10.743Z,95775.81
2022-10-05T14:16:56.271Z,95776.53
2022-10-05T14:19:28.184Z,95775.00
2022-10-05T14:22:24.613Z,95770.53
2022-10-05T14:24:55.134Z,95765.72
2022-10-05T14:27:23.871Z,95768.91
2022-10-05T14:30:17.181Z,95766.97
2022-10-05T14:32:51.439Z,95762.31
2022-10-05T14:35:22.108Z,95755.22
2022-10-05T14:38:01.613Z,95751.38
2022-10-05T14:40:34.809Z,95740.66
2022-10-05T14:43:30.936Z,95745.16
2022-10-05T14:46:01.656Z,95746.97
2022-10-05T14:48:38.534Z,95750.50
2022-10-05T14:51:11.270Z,95749.00
2022-10-05T14:53:39.430Z,95748.22
2022-10-05T14:56:25.034Z,95749.88
2022-10-05T14:58:57.681Z,95754.56
2022-10-05T15:01:32.925Z,95753.78
2022-10-05T15:04:21.204Z,95756.78
2022-10-05T15:07:04.283Z,95750.06
2022-10-05T15:09:40.194Z,95748.84
2022-10-05T15:12:08.415Z,95750.34
2022-10-05T15:14:42.979Z,95741.75
2022-10-05T15:17:20.342Z,95728.78
2022-10-05T15:20:28.492Z,95741.03
2022-10-05T15:23:30.702Z,95741.19
2022-10-05T15:26:07.760Z,95743.53
2022-10-05T15:28:48.483Z,95749.00
2022-10-05T15:31:51.820Z,95736.63
2022-10-05T15:34:49.246Z,95749.72
2022-10-05T15:37:22.032Z,95737.97
2022-10-05T15:40:02.071Z,95731.59
2022-10-05T15:42:41.207Z,95739.25
2022-10-05T15:45:32.750Z,95746.50
2022-10-05T15:48:19.883Z,95742.31
2022-10-05T15:50:50.725Z,95737.13
2022-10-05T15:53:24.070Z,95744.28
2022-10-05T15:55:54.735Z,95746.22
2022-10-05T15:58:31.395Z,95747.00
2022-10-05T16:01:24.700Z,95751.44
2022-10-05T16:04:01.590Z,95746.09
2022-10-05T16:06:52.972Z,95754.91
2022-10-05T16:09:46.863Z,95765.41
2022-10-05T16:12:22.203Z,95762.69
2022-10-05T16:14:59.812Z,95754.81
2022-10-05T16:17:35.568Z,95773.41
2022-10-05T16:20:20.774Z,95770.97
2022-10-05T16:23:25.225Z,95772.75
2022-10-05T16:26:14.669Z,95781.34
2022-10-05T16:28:56.361Z,95784.44
2022-10-05T16:31:37.488Z,95777.56
2022-10-05T16:34:41.245Z,95789.38
2022-10-05T16:37:58.439Z,95789.47
2022-10-05T16:40:50.989Z,95791.06
2022-10-05T16:43:28.983Z,95794.22
2022-10-05T16:46:12.740Z,95808.44
2022-10-05T16:48:48.334Z,95806.09
2022-10-05T16:51:21.462Z,95805.59
2022-10-05T16:54:06.898Z,95812.81
2022-10-05T16:56:43.576Z,95810.19
2022-10-05T16:59:28.467Z,95815.66
2022-10-05T17:02:07.343Z,95812.91
2022-10-05T17:04:44.823Z,95813.06
2022-10-05T17:07:37.699Z,95816.16
2022-10-05T17:10:13.023Z,95821.56
2022-10-05T17:12:45.680Z,95827.75
2022-10-05T17:15:15.210Z,95824.13
2022-10-05T17:18:07.033Z,95837.13
2022-10-05T17:20:42.617Z,95846.69
2022-10-05T17:23:37.731Z,95850.25
2022-10-05T17:26:33.680Z,95849.97
2022-10-05T17:29:09.242Z,95856.09
2022-10-05T17:32:06.877Z,95868.66
2022-10-05T17:34:36.498Z,95852.84
2022-10-05T17:37:37.967Z,95879.34
2022-10-05T17:40:33.776Z,95870.31
2022-10-05T17:43:05.518Z,95891.50
2022-10-05T17:45:32.047Z,95879.03
2022-10-05T17:48:04.358Z,95881.72
2022-10-05T17:51:07.396Z,95880.97
2022-10-05T17:53:52.796Z,95892.72
2022-10-05T17:56:23.192Z,95896.09
2022-10-05T17:58:55.714Z,95898.41
2022-10-05T18:01:36.064Z,95905.97
2022-10-05T18:04:11.877Z,95906.66
2022-10-05T18:06:39.221Z,95915.75
2022-10-05T18:09:17.239Z,95913.09
2022-10-05T18:11:49.250Z,95911.97
2022-10-05T18:14:20.047Z,95916.50
2022-10-05T18:17:04.698Z,95921.06
2022-10-05T18:19:32.671Z,95924.84
2022-10-05T18:22:03.574Z,95933.19
2022-10-05T18:24:39.003Z,95936.19
2022-10-05T18:27:05.588Z,95945.66
2022-10-05T18:30:13.369Z,95942.28
2022-10-05T18:32:51.324Z,95956.66
2022-10-05T18:35:33.169Z,95953.25
2022-10-05T18:38:22.513Z,95952.81
2022-10-05T18:41:01.913Z,95954.31
2022-10-05T18:43:48.000Z,95959.63
2022-10-05T18:46:42.563Z,95964.13
2022-10-05T18:49:36.697Z,95972.06
2022-10-05T18:52:20.611Z,95972.47
2022-10-05T18:55:02.633Z,95981.88
2022-10-05T18:57:56.904Z,95986.38
2022-10-05T19:00:24.851Z,95993.53
2022-10-05T19:02:57.861Z,95997.66
2022-10-05T19:05:48.918Z,95996.16
2022-10-05T19:08:32.102Z,95998.03
2022-10-05T19:11:23.061Z,95993.84
2022-10-05T19:14:09.394Z,96010.06
2022-10-05T19:16:50.849Z,96009.25
2022-10-05T19:19:32.368Z,96014.47
2022-10-05T19:22:47.769Z,96006.50
2022-10-05T19:25:37.832Z,96013.66
2022-10-05T19:28:17.509Z,96017.09
2022-10-05T19:31:03.579Z,96010.28
2022-10-05T19:34:04.083Z,96027.31
2022-10-05T19:36:49.588Z,96020.16
2022-10-05T19:39:55.598Z,96028.81
2022-10-05T19:42:40.715Z,96043.91
2022-10-05T19:45:13.163Z,96044.69
2022-10-05T19:47:56.809Z,96042.78
2022-10-05T19:50:23.368Z,96048.38
2022-10-05T19:52:57.284Z,96054.34
2022-10-05T19:55:35.051Z,96061.84
2022-10-05T19:58:01.862Z,96064.81
2022-10-05T20:00:33.959Z,96065.25
2022-10-05T20:03:17.565Z,96068.66
2022-10-05T20:05:44.246Z,96062.56
2022-10-05T20:08:18.942Z,96076.22
2022-10-05T20:11:03.837Z,96071.66
2022-10-05T20:13:33.535Z,96084.13
2022-10-05T20:16:35.066Z,96089.69
2022-10-05T20:19:44.058Z,96091.06
2022-10-05T20:22:23.799Z,96095.09
2022-10-05T20:24:53.142Z,96098.03
2022-10-05T20:27:49.133Z,96094.56
2022-10-05T20:30:18.674Z,96100.22
2022-10-05T20:32:58.120Z,96099.06
2022-10-05T20:35:27.890Z,96101.97
2022-10-05T20:37:59.439Z,96111.75
2022-10-05T20:40:30.214Z,96115.13
2022-10-05T20:42:57.878Z,96126.06
2022-10-05T20:45:24.620Z,96128.41
2022-10-05T20:47:51.279Z,96119.34
2022-10-05T20:50:18.393Z,96121.91
2022-10-05T20:52:45.057Z,96126.06
2022-10-05T20:55:12.587Z,96138.22
2022-10-05T20:57:42.263Z,96133.63
2022-10-05T21:00:10.377Z,96137.28
2022-10-05T21:02:38.261Z,96143.22
2022-10-05T21:05:05.610Z,96135.66
2022-10-05T21:07:34.253Z,96147.31
2022-10-05T21:10:02.374Z,96148.75
2022-10-05T21:12:28.927Z,96157.00
2022-10-05T21:14:55.517Z,96149.06
2022-10-05T21:17:22.058Z,96158.84
2022-10-05T21:19:48.611Z,96158.84
2022-10-05T21:22:15.214Z,96152.75
2022-10-05T21:24:41.886Z,96158.09
2022-10-05T21:27:08.549Z,96160.31
2022-10-05T21:29:36.530Z,96163.63
2022-10-05T21:32:03.963Z,96162.50
2022-10-05T21:34:30.530Z,96171.13
2022-10-05T21:36:57.046Z,96173.00
2022-10-05T21:39:24.903Z,96177.47
2022-10-05T21:41:51.515Z,96178.09
2022-10-05T21:44:18.332Z,96175.75
2022-10-05T21:46:45.539Z,96182.50
2022-10-05T21:49:15.048Z,96172.72
2022-10-05T21:51:44.815Z,96181.75
2022-10-05T21:54:16.877Z,96184.31
2022-10-05T21:56:48.397Z,96180.94
2022-10-05T21:59:16.780Z,96184.69
2022-10-05T22:01:43.335Z,96189.88
2022-10-05T22:04:09.954Z,96188.34
2022-10-05T22:06:36.907Z,96191.38
2022-10-05T22:09:05.090Z,96197.38
2022-10-05T22:11:33.166Z,96189.75
2022-10-05T22:14:02.807Z,96194.28
2022-10-05T22:16:36.692Z,96199.88
2022-10-05T22:19:06.149Z,96194.59
2022-10-05T22:21:38.044Z,96191.97
2022-10-05T22:24:05.116Z,96199.88
2022-10-05T22:26:31.913Z,96194.50
2022-10-05T22:28:58.903Z,96197.13
2022-10-05T22:31:25.555Z,96204.91
2022-10-05T22:33:52.215Z,96199.25
2022-10-05T22:36:19.920Z,96195.38
2022-10-05T22:38:49.377Z,96205.97
2022-10-05T22:41:18.410Z,96203.28
2022-10-05T22:43:48.814Z,96212.03
2022-10-05T22:46:16.034Z,96212.72
2022-10-05T22:48:43.230Z,96209.25
2022-10-05T22:51:10.540Z,96208.44
2022-10-05T22:53:37.834Z,96218.00
2022-10-05T22:56:06.513Z,96215.94
2022-10-05T22:58:33.339Z,96219.41
2022-10-05T23:01:02.334Z,96220.91
2022-10-05T23:03:29.244Z,96214.13
2022-10-05T23:05:57.830Z,96220.91
2022-10-05T23:08:24.719Z,96223.94
2022-10-05T23:10:52.556Z,96217.88
2022-10-05T23:13:19.266Z,96231.44
2022-10-05T23:15:45.805Z,96223.84
2022-10-05T23:18:12.513Z,96231.06
2022-10-05T23:20:40.428Z,96235.53
2022-10-05T23:23:06.967Z,96238.53
2022-10-05T23:25:33.606Z,96238.06
2022-10-05T23:28:02.012Z,96244.91
2022-10-05T23:30:28.573Z,96247.84
2022-10-05T23:32:55.611Z,96223.75
2022-10-05T23:35:22.764Z,96244.38
2022-10-05T23:37:49.381Z,96253.81
2022-10-05T23:40:16.048Z,96255.31
2022-10-05T23:42:42.778Z,96252.41
2022-10-05T23:45:11.073Z,96252.41
2022-10-05T23:47:38.625Z,96246.31
2022-10-05T23:50:07.246Z,96244.03
2022-10-05T23:52:35.354Z,96244.66
2022-10-05T23:55:05.631Z,96248.28
2022-10-05T23:57:32.785Z,96245.19
